Time;durP1;ratioP1;P1;durP2;ratioP2;P2;SDS_P1;SDS_P2;PMS_P1;PMS_P2;Temp;Humidity;BMP_temperature;BMP_pressure;BME280_temperature;BME280_humidity;BME280_pressure;Samples;Min_cycle;Max_cycle;Signal;HPM_P1;HPM_P2
2021/05/29 00:00:42;;;;;;;13.50;10.97;;;11.50;99.90;;;;;;6294359;22;20179;-77
2021/05/29 00:03:08;;;;;;;14.57;12.43;;;11.50;99.90;;;;;;6293178;22;20198;-78
2021/05/29 00:05:35;;;;;;;13.17;11.23;;;11.40;99.90;;;;;;6294483;22;20222;-81
2021/05/29 00:08:01;;;;;;;14.20;10.00;;;11.40;99.90;;;;;;6294535;22;20200;-80
2021/05/29 00:10:27;;;;;;;15.30;11.80;;;11.40;99.90;;;;;;6293435;22;20176;-79
2021/05/29 00:12:54;;;;;;;15.20;11.50;;;11.40;99.90;;;;;;6294607;22;20169;-78
2021/05/29 00:15:20;;;;;;;14.23;11.13;;;11.40;99.90;;;;;;6293854;22;20302;-80
2021/05/29 00:17:47;;;;;;;11.10;9.90;;;11.40;99.90;;;;;;6293994;22;20180;-80
2021/05/29 00:20:14;;;;;;;11.17;9.50;;;11.30;99.90;;;;;;6294402;22;20171;-80
2021/05/29 00:22:40;;;;;;;14.30;10.60;;;11.20;99.90;;;;;;6293489;22;20176;-76
2021/05/29 00:25:08;;;;;;;11.47;9.67;;;11.20;99.90;;;;;;6294421;22;20172;-80
2021/05/29 00:27:35;;;;;;;11.33;9.73;;;11.20;99.90;;;;;;6294476;22;20192;-79
2021/05/29 00:30:01;;;;;;;11.70;9.90;;;11.10;99.90;;;;;;6293270;22;20714;-79
2021/05/29 00:32:28;;;;;;;12.73;9.93;;;11.10;99.90;;;;;;6295256;22;20176;-78
2021/05/29 00:34:55;;;;;;;13.13;9.97;;;11.10;99.90;;;;;;6294480;22;20178;-79
2021/05/29 00:37:21;;;;;;;12.30;9.90;;;11.10;99.90;;;;;;6294204;22;20199;-81
2021/05/29 00:39:47;;;;;;;13.80;9.77;;;11.10;99.90;;;;;;6294920;22;20518;-80
2021/05/29 00:42:14;;;;;;;17.83;10.13;;;11.10;99.90;;;;;;6294106;22;20176;-77
2021/05/29 00:44:50;;;;;;;11.50;9.77;;;11.10;99.90;;;;;;6293615;22;20176;-79
2021/05/29 00:47:21;;;;;;;11.53;10.07;;;11.00;99.90;;;;;;6295514;22;20470;-80
2021/05/29 00:49:47;;;;;;;12.30;9.87;;;11.00;99.90;;;;;;6295741;22;20168;-78
2021/05/29 00:52:15;;;;;;;10.87;8.17;;;11.00;99.90;;;;;;6294943;22;20202;-79
2021/05/29 00:54:42;;;;;;;11.43;9.07;;;11.00;99.90;;;;;;6298908;22;20180;-80
2021/05/29 00:57:10;;;;;;;12.13;9.03;;;11.00;99.90;;;;;;6299226;22;20854;-79
2021/05/29 00:59:37;;;;;;;10.80;8.60;;;11.00;99.90;;;;;;6296747;22;20226;-79
2021/05/29 01:02:04;;;;;;;9.13;7.93;;;11.00;99.90;;;;;;6296365;22;20187;-78
2021/05/29 01:04:30;;;;;;;9.50;8.50;;;10.90;99.90;;;;;;6293988;22;20257;-80
2021/05/29 01:06:56;;;;;;;8.57;7.53;;;10.90;99.90;;;;;;6293414;22;20176;-79
2021/05/29 01:09:24;;;;;;;9.70;8.50;;;10.90;99.90;;;;;;6294159;22;20187;-79
2021/05/29 01:11:51;;;;;;;9.00;7.33;;;10.80;99.90;;;;;;6293021;22;20180;-79
2021/05/29 01:14:17;;;;;;;7.90;7.10;;;10.80;99.90;;;;;;6293987;22;20175;-78
2021/05/29 01:16:54;;;;;;;7.80;6.57;;;10.80;99.90;;;;;;6294338;22;20183;-79
2021/05/29 01:19:21;;;;;;;8.37;7.13;;;10.80;99.90;;;;;;6293002;22;20168;-80
2021/05/29 01:21:48;;;;;;;8.57;7.37;;;10.80;99.90;;;;;;6294403;22;20591;-80
2021/05/29 01:24:17;;;;;;;8.33;7.50;;;10.70;99.90;;;;;;6295656;22;20179;-80
2021/05/29 01:26:44;;;;;;;10.77;7.90;;;10.70;99.90;;;;;;6294657;22;20206;-79
2021/05/29 01:29:10;;;;;;;10.23;8.47;;;10.70;99.90;;;;;;6295354;22;20721;-78
2021/05/29 01:31:37;;;;;;;8.27;7.00;;;10.70;99.90;;;;;;6295989;22;20218;-79
2021/05/29 01:34:04;;;;;;;6.93;6.23;;;10.70;99.90;;;;;;6294867;22;20180;-77
2021/05/29 01:36:31;;;;;;;10.70;7.47;;;10.60;99.90;;;;;;6295660;22;20579;-78
2021/05/29 01:38:57;;;;;;;8.70;7.23;;;10.60;99.90;;;;;;6295383;22;20164;-78
2021/05/29 01:41:25;;;;;;;9.50;7.37;;;10.50;99.90;;;;;;6294694;22;20569;-77
2021/05/29 01:43:52;;;;;;;9.40;8.40;;;10.60;99.90;;;;;;6294753;22;20886;-77
2021/05/29 01:46:20;;;;;;;9.17;8.23;;;10.50;99.90;;;;;;6295493;22;20237;-78
2021/05/29 01:48:48;;;;;;;9.83;8.33;;;10.50;99.90;;;;;;6294139;22;20188;-78
2021/05/29 01:51:16;;;;;;;9.67;8.67;;;10.50;99.90;;;;;;6295298;22;20592;-78
2021/05/29 01:53:43;;;;;;;10.00;8.50;;;10.60;99.90;;;;;;6295976;22;20241;-77
2021/05/29 01:56:10;;;;;;;12.07;9.10;;;10.50;99.90;;;;;;6294790;22;20853;-79
2021/05/29 01:58:39;;;;;;;10.60;7.73;;;10.50;99.90;;;;;;6295460;22;20652;-79
2021/05/29 02:01:06;;;;;;;9.27;8.27;;;10.50;99.90;;;;;;6294774;22;20172;-78
2021/05/29 02:03:33;;;;;;;8.83;7.60;;;10.50;99.90;;;;;;6294796;22;20211;-77
2021/05/29 02:05:59;;;;;;;10.83;7.47;;;10.50;99.90;;;;;;6295157;22;20826;-78
2021/05/29 02:08:25;;;;;;;8.30;6.97;;;10.40;99.90;;;;;;6294647;22;20972;-77
2021/05/29 02:10:52;;;;;;;8.87;7.67;;;10.40;99.90;;;;;;6294852;22;20574;-78
2021/05/29 02:13:23;;;;;;;7.37;6.53;;;10.30;99.90;;;;;;6295962;22;20172;-79
2021/05/29 02:15:51;;;;;;;8.43;6.87;;;10.30;99.90;;;;;;6295496;22;20616;-78
2021/05/29 02:18:17;;;;;;;7.13;6.03;;;10.30;99.90;;;;;;6295264;22;20227;-79
2021/05/29 02:20:45;;;;;;;6.93;5.77;;;10.20;99.90;;;;;;6295957;22;20182;-75
2021/05/29 02:23:13;;;;;;;7.53;6.37;;;10.20;99.90;;;;;;6294157;22;20179;-79
2021/05/29 02:25:40;;;;;;;7.43;6.30;;;10.20;99.90;;;;;;6295798;22;20191;-76
2021/05/29 02:28:07;;;;;;;6.10;5.50;;;10.20;99.90;;;;;;6295272;22;20192;-76
2021/05/29 02:30:35;;;;;;;7.23;6.53;;;10.10;99.90;;;;;;6295098;22;20230;-78
2021/05/29 02:33:02;;;;;;;6.50;5.90;;;10.10;99.90;;;;;;6295373;22;20587;-78
2021/05/29 02:35:28;;;;;;;7.70;6.03;;;10.00;99.90;;;;;;6295231;22;20209;-76
2021/05/29 02:37:55;;;;;;;6.73;6.03;;;10.00;99.90;;;;;;6295046;22;20168;-76
2021/05/29 02:40:21;;;;;;;7.37;5.50;;;10.00;99.90;;;;;;6295644;22;20190;-79
2021/05/29 02:42:47;;;;;;;6.77;5.87;;;9.90;99.90;;;;;;6294638;22;20561;-79
2021/05/29 02:45:14;;;;;;;8.83;7.20;;;9.90;99.90;;;;;;6294345;22;20758;-78
2021/05/29 02:47:41;;;;;;;9.73;7.43;;;9.80;99.90;;;;;;6295363;22;20172;-76
2021/05/29 02:50:10;;;;;;;10.20;7.43;;;9.80;99.90;;;;;;6295163;22;20168;-76
2021/05/29 02:52:37;;;;;;;10.27;8.13;;;9.80;99.90;;;;;;6294219;22;20185;-77
2021/05/29 02:55:04;;;;;;;9.67;7.17;;;9.70;99.90;;;;;;6295967;22;20176;-79
2021/05/29 02:57:31;;;;;;;9.93;7.60;;;9.70;99.90;;;;;;6295611;22;20180;-78
2021/05/29 02:59:57;;;;;;;10.53;7.63;;;9.60;99.90;;;;;;6294410;22;20230;-79
2021/05/29 03:02:24;;;;;;;9.13;7.63;;;9.60;99.90;;;;;;6295666;22;20176;-79
2021/05/29 03:04:50;;;;;;;9.00;6.93;;;9.60;99.90;;;;;;6293544;22;20246;-79
2021/05/29 03:07:18;;;;;;;9.83;6.90;;;9.60;99.90;;;;;;6295429;22;20175;-78
2021/05/29 03:09:45;;;;;;;7.40;6.67;;;9.50;99.90;;;;;;6295899;22;20191;-78
2021/05/29 03:12:12;;;;;;;9.13;7.30;;;9.50;99.90;;;;;;6294150;22;20172;-79
2021/05/29 03:14:39;;;;;;;9.77;6.30;;;9.50;99.90;;;;;;6295622;22;20176;-76
2021/05/29 03:17:05;;;;;;;7.30;6.60;;;9.50;99.90;;;;;;6293655;22;20176;-79
2021/05/29 03:19:32;;;;;;;7.60;5.97;;;9.50;99.90;;;;;;6294175;22;20164;-79
2021/05/29 03:21:58;;;;;;;7.73;5.83;;;9.40;99.90;;;;;;6295369;22;20183;-76
2021/05/29 03:24:25;;;;;;;7.13;6.43;;;9.40;99.90;;;;;;6294577;22;20171;-77
2021/05/29 03:26:51;;;;;;;7.43;6.67;;;9.40;99.90;;;;;;6293819;22;20172;-76
2021/05/29 03:29:18;;;;;;;7.93;7.13;;;9.40;99.90;;;;;;6294599;22;20200;-79
2021/05/29 03:31:44;;;;;;;9.23;6.93;;;9.40;99.90;;;;;;6294953;22;20183;-80
2021/05/29 03:34:11;;;;;;;6.87;6.17;;;9.40;99.90;;;;;;6294133;22;20188;-79
2021/05/29 03:36:38;;;;;;;6.23;5.63;;;9.30;99.90;;;;;;6294899;22;20176;-79
2021/05/29 03:39:05;;;;;;;7.83;6.27;;;9.30;99.90;;;;;;6294990;22;20815;-79
2021/05/29 03:41:32;;;;;;;6.87;6.17;;;9.30;99.90;;;;;;6294901;22;20179;-78
2021/05/29 03:44:00;;;;;;;8.67;6.77;;;9.30;99.90;;;;;;6294769;22;20191;-79
2021/05/29 03:46:27;;;;;;;6.00;5.40;;;9.30;99.90;;;;;;6294125;22;20233;-75
2021/05/29 03:48:53;;;;;;;10.57;7.30;;;9.30;99.90;;;;;;6293487;22;20195;-79
2021/05/29 03:51:19;;;;;;;20.23;13.03;;;9.30;99.90;;;;;;6294195;22;20188;-80
2021/05/29 03:53:46;;;;;;;22.27;15.37;;;9.20;99.90;;;;;;6294106;22;20172;-79
2021/05/29 03:56:12;;;;;;;22.87;15.27;;;9.20;99.90;;;;;;6294858;22;20176;-77
2021/05/29 03:58:39;;;;;;;22.00;15.23;;;9.20;99.90;;;;;;6294102;22;20164;-77
2021/05/29 04:01:06;;;;;;;18.93;13.27;;;9.20;99.90;;;;;;6292931;22;20258;-77
2021/05/29 04:03:32;;;;;;;16.77;12.20;;;9.20;99.90;;;;;;6293856;22;20179;-77
2021/05/29 04:05:58;;;;;;;18.30;12.60;;;9.20;99.90;;;;;;6294429;22;20171;-80
2021/05/29 04:08:25;;;;;;;14.23;11.23;;;9.20;99.90;;;;;;6293683;22;20196;-79
2021/05/29 04:10:51;;;;;;;14.47;10.13;;;9.20;99.90;;;;;;6294450;22;20176;-78
2021/05/29 04:13:18;;;;;;;11.73;9.00;;;9.20;99.90;;;;;;6293730;22;20176;-77
2021/05/29 04:15:45;;;;;;;12.80;9.17;;;9.20;99.90;;;;;;6292743;22;20195;-77
2021/05/29 04:18:12;;;;;;;11.83;8.93;;;9.20;99.90;;;;;;6294350;22;20176;-77
2021/05/29 04:20:38;;;;;;;11.57;8.37;;;9.20;99.90;;;;;;6293981;22;20176;-80
2021/05/29 04:23:04;;;;;;;10.60;8.43;;;9.20;99.90;;;;;;6293119;22;20171;-77
2021/05/29 04:25:31;;;;;;;13.77;10.33;;;9.20;99.90;;;;;;6294330;22;20180;-77
2021/05/29 04:27:58;;;;;;;14.43;10.07;;;9.20;99.90;;;;;;6293551;22;20199;-78
2021/05/29 04:30:29;;;;;;;11.33;9.80;;;9.30;99.90;;;;;;6293604;22;20647;-77
2021/05/29 04:32:56;;;;;;;12.23;9.20;;;9.30;99.90;;;;;;6267567;22;20199;-78
2021/05/29 04:35:23;;;;;;;11.87;9.53;;;9.30;99.90;;;;;;6293655;22;20172;-78
2021/05/29 04:37:51;;;;;;;13.87;9.50;;;9.40;99.90;;;;;;6292969;22;20532;-80
2021/05/29 04:40:19;;;;;;;12.10;10.03;;;9.40;99.90;;;;;;6293940;22;20172;-80
2021/05/29 04:42:45;;;;;;;13.57;10.63;;;9.40;99.90;;;;;;6293705;22;20168;-81
2021/05/29 04:45:13;;;;;;;14.40;10.77;;;9.50;99.90;;;;;;6293513;22;20230;-78
2021/05/29 04:47:40;;;;;;;18.13;11.67;;;9.60;99.90;;;;;;6293445;22;20492;-77
2021/05/29 04:50:09;;;;;;;17.13;11.23;;;9.70;99.90;;;;;;6293008;22;20175;-77
2021/05/29 04:52:36;;;;;;;16.93;12.77;;;9.80;99.90;;;;;;6293388;22;20184;-77
2021/05/29 04:55:04;;;;;;;16.63;12.17;;;9.90;99.90;;;;;;6293612;22;20225;-78
2021/05/29 04:57:30;;;;;;;15.87;12.70;;;10.00;99.90;;;;;;6295398;22;20473;-79
2021/05/29 04:59:56;;;;;;;18.50;12.97;;;10.00;99.90;;;;;;6297101;22;20218;-77
2021/05/29 05:02:23;;;;;;;19.47;13.57;;;10.10;99.90;;;;;;6296969;22;20168;-78
2021/05/29 05:04:49;;;;;;;20.27;13.37;;;10.20;99.90;;;;;;6296534;22;20206;-79
2021/05/29 05:07:16;;;;;;;21.13;14.77;;;10.30;99.90;;;;;;6297237;22;20171;-77
2021/05/29 05:09:43;;;;;;;19.40;14.57;;;10.50;99.90;;;;;;6298085;22;20202;-78
2021/05/29 05:12:10;;;;;;;18.83;15.00;;;10.60;99.90;;;;;;6297121;22;20176;-80
2021/05/29 05:14:36;;;;;;;19.20;15.10;;;10.60;99.90;;;;;;6297070;22;20233;-79
2021/05/29 05:17:03;;;;;;;21.07;15.67;;;10.70;99.90;;;;;;6296664;22;20959;-78
2021/05/29 05:19:30;;;;;;;19.57;14.80;;;10.80;99.90;;;;;;6297147;22;20172;-76
2021/05/29 05:21:56;;;;;;;20.93;15.30;;;11.00;99.90;;;;;;6298039;22;20281;-76
2021/05/29 05:24:24;;;;;;;25.57;16.50;;;11.30;99.90;;;;;;6298421;22;20172;-76
2021/05/29 05:26:50;;;;;;;25.50;17.53;;;11.80;99.90;;;;;;6297142;22;20164;-76
2021/05/29 05:29:16;;;;;;;25.13;17.30;;;12.20;99.90;;;;;;6298193;22;20195;-78
2021/05/29 05:31:44;;;;;;;19.40;15.17;;;12.40;99.90;;;;;;6297679;22;20176;-80
2021/05/29 05:34:11;;;;;;;18.73;14.17;;;12.70;99.90;;;;;;6297088;22;20877;-79
2021/05/29 05:36:39;;;;;;;19.30;14.97;;;12.70;99.90;;;;;;6297642;22;20175;-77
2021/05/29 05:39:08;;;;;;;19.37;14.87;;;12.80;99.90;;;;;;6296050;22;20172;-77
2021/05/29 05:41:36;;;;;;;19.13;13.00;;;12.90;99.90;;;;;;6297962;22;20172;-78
2021/05/29 05:44:02;;;;;;;16.73;13.17;;;13.10;99.90;;;;;;6297256;22;20172;-77
2021/05/29 05:46:29;;;;;;;15.67;12.77;;;13.40;99.90;;;;;;6297195;22;20827;-78
2021/05/29 05:48:55;;;;;;;16.87;12.47;;;13.60;99.90;;;;;;6297142;22;20827;-76
2021/05/29 05:51:22;;;;;;;13.80;11.63;;;13.70;99.90;;;;;;6297612;22;20202;-78
2021/05/29 05:53:48;;;;;;;16.17;12.87;;;13.90;99.90;;;;;;6298140;22;20237;-80
2021/05/29 05:56:25;;;;;;;15.60;10.57;;;14.10;99.90;;;;;;6299604;22;20183;-78
2021/05/29 05:58:53;;;;;;;15.43;11.73;;;14.20;99.90;;;;;;6301082;22;20167;-80
2021/05/29 06:01:20;;;;;;;18.73;11.77;;;14.30;99.90;;;;;;6297809;22;20626;-77
2021/05/29 06:03:46;;;;;;;14.87;11.67;;;14.30;99.90;;;;;;6297268;22;20192;-78
2021/05/29 06:06:12;;;;;;;16.43;11.70;;;14.20;99.90;;;;;;6297939;22;20467;-76
2021/05/29 06:08:38;;;;;;;12.47;10.73;;;14.20;99.90;;;;;;6296178;22;20466;-79
2021/05/29 06:11:05;;;;;;;14.73;11.13;;;13.90;99.90;;;;;;6296801;22;20172;-80
2021/05/29 06:17:57;;;;;;;12.43;10.67;;;14.00;99.90;;;;;;6296544;22;20182;-77
2021/05/29 06:19:17;;;;;;;13.93;11.17;;;14.30;99.90;;;;;;6295967;22;20174;-77
2021/05/29 06:21:46;;;;;;;12.50;10.80;;;14.20;99.90;;;;;;6294709;22;20171;-79
2021/05/29 06:24:17;;;;;;;13.43;11.20;;;13.90;99.90;;;;;;6296401;22;20195;-77
2021/05/29 06:26:44;;;;;;;14.93;11.50;;;13.80;99.90;;;;;;6294876;22;20156;-79
2021/05/29 06:29:10;;;;;;;16.03;10.80;;;13.70;99.90;;;;;;6294776;22;20195;-77
2021/05/29 06:31:37;;;;;;;12.73;10.70;;;13.60;99.90;;;;;;6296086;22;20176;-79
2021/05/29 06:34:04;;;;;;;14.73;11.83;;;13.60;99.90;;;;;;6296113;22;20238;-77
2021/05/29 06:36:31;;;;;;;15.33;11.90;;;13.40;99.90;;;;;;6295320;22;20719;-78
2021/05/29 06:38:57;;;;;;;16.20;11.63;;;13.40;99.90;;;;;;6296095;22;20168;-76
2021/05/29 06:41:24;;;;;;;15.27;11.47;;;13.30;99.90;;;;;;6296024;22;20576;-79
2021/05/29 06:43:50;;;;;;;14.50;11.47;;;13.30;99.90;;;;;;6294979;22;20175;-77
2021/05/29 06:46:16;;;;;;;17.57;12.53;;;13.50;99.90;;;;;;6296113;22;20172;-80
2021/05/29 06:48:46;;;;;;;14.53;11.23;;;13.60;99.90;;;;;;6295878;22;20249;-79
2021/05/29 06:51:17;;;;;;;13.67;10.07;;;13.80;99.90;;;;;;6295070;22;20537;-78
2021/05/29 06:53:46;;;;;;;14.13;10.93;;;14.30;99.90;;;;;;6295562;22;20163;-78
2021/05/29 06:58:57;;;;;;;12.47;9.97;;;15.40;99.90;;;;;;6294704;22;20230;-79
2021/05/29 07:01:25;;;;;;;12.07;9.30;;;15.90;99.90;;;;;;6294369;22;20568;-80
2021/05/29 07:03:53;;;;;;;12.53;9.80;;;16.30;99.90;;;;;;6293696;22;20614;-80
2021/05/29 07:06:20;;;;;;;10.65;8.85;;;16.80;99.90;;;;;;6295355;22;20783;-82
2021/05/29 07:08:47;;;;;;;10.25;9.15;;;17.20;99.90;;;;;;6295899;22;20196;-81
2021/05/29 07:11:14;;;;;;;13.27;10.07;;;17.40;99.90;;;;;;6294146;22;20628;-82
2021/05/29 07:13:40;;;;;;;11.40;9.35;;;17.50;99.90;;;;;;6295314;22;20191;-81
2021/05/29 07:16:06;;;;;;;10.90;9.50;;;17.60;99.90;;;;;;6296034;22;20202;-77
2021/05/29 07:18:35;;;;;;;12.85;9.52;;;17.50;99.90;;;;;;6295607;22;20174;-78
2021/05/29 07:21:02;;;;;;;10.35;9.30;;;17.70;99.90;;;;;;6294931;22;20224;-81
2021/05/29 07:23:29;;;;;;;11.88;9.35;;;17.50;99.90;;;;;;6295839;22;20182;-81
2021/05/29 07:25:55;;;;;;;9.75;8.75;;;17.10;99.90;;;;;;6294809;22;20263;-78
2021/05/29 07:28:22;;;;;;;12.63;9.02;;;16.80;99.90;;;;;;6295793;22;20281;-75
2021/05/29 07:30:49;;;;;;;9.30;8.20;;;17.10;99.90;;;;;;6295491;22;20183;-79
2021/05/29 07:33:16;;;;;;;10.73;9.10;;;17.30;99.90;;;;;;6253579;22;21075;-79
2021/05/29 07:35:43;;;;;;;11.70;9.63;;;17.60;99.90;;;;;;6295746;22;20229;-78
2021/05/29 07:38:10;;;;;;;9.30;8.40;;;17.70;99.90;;;;;;6295115;22;20279;-75
2021/05/29 07:40:37;;;;;;;10.98;9.55;;;17.90;99.90;;;;;;6294272;22;20541;-76
2021/05/29 07:43:04;;;;;;;11.82;9.02;;;17.70;99.90;;;;;;6295418;22;20182;-78
2021/05/29 07:45:31;;;;;;;11.40;9.07;;;17.70;99.90;;;;;;6294462;22;20614;-79
2021/05/29 07:47:57;;;;;;;10.43;8.45;;;17.50;99.90;;;;;;6294067;22;20222;-80
2021/05/29 07:50:23;;;;;;;9.35;8.35;;;17.20;99.90;;;;;;6289640;22;20164;-80
2021/05/29 07:52:50;;;;;;;10.38;9.00;;;17.30;99.90;;;;;;6294866;22;20191;-78
2021/05/29 07:55:17;;;;;;;11.02;8.68;;;17.20;99.90;;;;;;6295578;22;20440;-80
2021/05/29 07:57:44;;;;;;;10.88;9.07;;;16.90;99.90;;;;;;6294505;22;20560;-76
2021/05/29 08:00:13;;;;;;;11.20;9.18;;;16.60;99.90;;;;;;6294208;22;20168;-81
2021/05/29 08:02:40;;;;;;;10.30;8.77;;;16.30;99.90;;;;;;6294588;22;20194;-80
2021/05/29 08:05:14;;;;;;;10.73;8.45;;;16.20;99.90;;;;;;6294158;22;20206;-76
2021/05/29 08:07:40;;;;;;;9.93;7.93;;;16.10;99.90;;;;;;6293970;22;20163;-76
2021/05/29 08:10:09;;;;;;;9.77;8.18;;;15.70;99.90;;;;;;6294753;22;20274;-78
2021/05/29 08:12:36;;;;;;;8.80;7.90;;;15.60;99.90;;;;;;6294336;22;20821;-76
2021/05/29 08:15:03;;;;;;;9.60;7.55;;;15.70;99.90;;;;;;6294016;22;20956;-78
2021/05/29 08:17:29;;;;;;;8.65;7.05;;;16.40;99.90;;;;;;6294025;22;20164;-77
2021/05/29 08:19:56;;;;;;;8.82;7.45;;;16.80;99.90;;;;;;6293966;22;20561;-76
2021/05/29 08:22:22;;;;;;;7.90;7.10;;;17.20;99.90;;;;;;6293778;22;20180;-77
2021/05/29 08:24:48;;;;;;;9.52;7.18;;;17.80;99.90;;;;;;6294436;22;20288;-81
2021/05/29 08:27:15;;;;;;;9.77;7.72;;;18.30;99.90;;;;;;6293955;22;20196;-76
2021/05/29 08:29:42;;;;;;;8.90;8.02;;;18.20;99.90;;;;;;6293025;22;20192;-77
2021/05/29 08:32:09;;;;;;;9.65;7.60;;;18.10;99.90;;;;;;6293688;22;20163;-80
2021/05/29 08:34:35;;;;;;;9.15;8.25;;;18.10;99.90;;;;;;6294501;22;20164;-76
2021/05/29 08:37:02;;;;;;;10.13;8.15;;;17.90;99.90;;;;;;6293387;22;20183;-76
2021/05/29 08:39:28;;;;;;;10.52;8.25;;;17.60;99.90;;;;;;6293799;22;20176;-77
2021/05/29 08:41:55;;;;;;;8.02;7.22;;;17.50;99.90;;;;;;6293473;22;20168;-80
2021/05/29 08:44:21;;;;;;;10.52;9.00;;;17.60;99.90;;;;;;6294276;22;20894;-80
2021/05/29 08:46:49;;;;;;;9.25;8.35;;;17.70;99.90;;;;;;6293801;22;20176;-79
2021/05/29 08:49:15;;;;;;;9.43;8.45;;;17.70;99.90;;;;;;6292783;22;20478;-76
2021/05/29 08:51:42;;;;;;;9.73;8.48;;;17.90;99.90;;;;;;6294602;22;20203;-77
2021/05/29 08:54:09;;;;;;;9.98;8.93;;;17.70;99.90;;;;;;6295073;22;20224;-80
2021/05/29 08:56:35;;;;;;;9.70;8.70;;;17.70;99.90;;;;;;6294627;22;20194;-80
2021/05/29 08:59:02;;;;;;;10.27;8.90;;;17.60;99.90;;;;;;6295142;22;20175;-79
2021/05/29 09:01:28;;;;;;;8.93;8.02;;;17.60;99.90;;;;;;6294754;22;20558;-76
2021/05/29 09:03:58;;;;;;;10.07;7.43;;;17.80;99.90;;;;;;6294010;22;20183;-81
2021/05/29 09:06:40;;;;;;;8.98;7.78;;;17.80;99.90;;;;;;6294148;22;20221;-79
2021/05/29 09:09:07;;;;;;;10.55;8.65;;;17.90;99.90;;;;;;6294295;22;20241;-76
2021/05/29 09:11:44;;;;;;;10.93;8.73;;;17.80;99.90;;;;;;6293423;22;20631;-77
2021/05/29 09:14:35;;;;;;;9.57;7.60;;;17.40;99.90;;;;;;6294391;22;20556;-77
2021/05/29 09:17:11;;;;;;;7.90;7.13;;;17.40;99.90;;;;;;6294674;22;20191;-76
2021/05/29 09:19:56;;;;;;;9.70;8.32;;;17.20;99.90;;;;;;6294446;22;20160;-80
2021/05/29 09:22:24;;;;;;;9.82;8.73;;;17.40;99.90;;;;;;6294135;22;20190;-79
2021/05/29 09:25:11;;;;;;;9.73;7.95;;;17.40;99.90;;;;;;6293616;22;20725;-76
2021/05/29 09:27:49;;;;;;;9.70;8.40;;;17.70;99.90;;;;;;6293785;22;20168;-77
2021/05/29 09:30:17;;;;;;;9.05;7.45;;;17.90;99.90;;;;;;6294506;22;20273;-77
2021/05/29 09:32:43;;;;;;;9.93;7.72;;;18.30;99.90;;;;;;6292892;22;20196;-77
2021/05/29 09:35:12;;;;;;;9.38;8.07;;;18.30;99.90;;;;;;6293877;22;20275;-75
2021/05/29 09:37:39;;;;;;;11.35;9.10;;;18.50;99.90;;;;;;6294373;22;20176;-79
2021/05/29 09:40:08;;;;;;;9.02;7.32;;;18.40;99.90;;;;;;6292588;22;20173;-77
2021/05/29 09:42:37;;;;;;;8.73;7.82;;;18.40;99.90;;;;;;6293092;22;20183;-77
2021/05/29 09:45:21;;;;;;;9.10;8.15;;;18.50;99.90;;;;;;6295229;22;20172;-79
2021/05/29 09:48:13;;;;;;;9.50;7.25;;;18.50;99.90;;;;;;6296011;22;20194;-77
2021/05/29 09:50:58;;;;;;;9.30;7.93;;;18.50;99.90;;;;;;6294702;22;20212;-76
2021/05/29 09:53:26;;;;;;;8.75;7.85;;;18.50;99.90;;;;;;6294819;22;20164;-79
2021/05/29 09:55:52;;;;;;;9.65;8.38;;;18.20;99.90;;;;;;6295660;22;20251;-76
2021/05/29 09:58:18;;;;;;;12.32;9.23;;;18.20;99.90;;;;;;6295684;22;20172;-76
2021/05/29 10:00:47;;;;;;;10.68;8.35;;;18.10;99.90;;;;;;6295558;22;20507;-75
2021/05/29 10:03:13;;;;;;;9.00;8.10;;;17.90;99.90;;;;;;6295859;22;20637;-77
2021/05/29 10:05:42;;;;;;;12.40;8.68;;;17.80;99.90;;;;;;6295171;22;20253;-82
2021/05/29 10:08:12;;;;;;;9.68;8.60;;;17.70;99.90;;;;;;6295523;22;20176;-78
2021/05/29 10:10:39;;;;;;;9.73;8.38;;;17.80;99.90;;;;;;6294980;22;20968;-76
2021/05/29 10:13:05;;;;;;;10.40;7.95;;;17.70;99.90;;;;;;6295453;22;20257;-78
2021/05/29 10:15:32;;;;;;;10.23;8.23;;;17.70;99.90;;;;;;6294102;22;20632;-76
2021/05/29 10:18:03;;;;;;;9.32;8.07;;;17.70;99.90;;;;;;6294523;22;20164;-76
2021/05/29 10:20:32;;;;;;;10.50;7.75;;;17.90;99.90;;;;;;6295014;22;20187;-77
2021/05/29 10:22:59;;;;;;;8.63;7.10;;;17.90;99.90;;;;;;6294895;22;20520;-77
2021/05/29 10:25:28;;;;;;;8.60;6.72;;;17.90;99.90;;;;;;6295008;22;20176;-75
2021/05/29 10:27:56;;;;;;;10.10;7.70;;;17.70;99.90;;;;;;6294440;22;20183;-77
2021/05/29 10:30:25;;;;;;;10.75;9.10;;;17.70;99.90;;;;;;6295004;22;20207;-76
2021/05/29 10:33:09;;;;;;;9.30;7.72;;;17.30;99.90;;;;;;6295137;22;20536;-77
2021/05/29 10:35:37;;;;;;;13.48;9.55;;;17.20;99.90;;;;;;6294381;22;20196;-77
2021/05/29 10:38:04;;;;;;;11.52;8.02;;;17.20;99.90;;;;;;6294680;22;20172;-76
2021/05/29 10:40:34;;;;;;;8.88;7.82;;;17.30;99.90;;;;;;6293349;22;20640;-76
2021/05/29 10:43:10;;;;;;;13.82;8.25;;;17.50;99.90;;;;;;6293882;22;20175;-76
2021/05/29 10:45:38;;;;;;;8.77;7.88;;;17.60;99.90;;;;;;6294615;22;20846;-75
2021/05/29 10:48:12;;;;;;;9.70;7.53;;;17.80;99.90;;;;;;6294342;22;20175;-78
2021/05/29 10:51:00;;;;;;;9.63;6.88;;;17.80;99.90;;;;;;6294300;22;20188;-77
2021/05/29 10:53:41;;;;;;;8.73;7.00;;;17.80;99.90;;;;;;6295138;22;20171;-78
2021/05/29 10:56:34;;;;;;;12.10;7.40;;;18.00;99.90;;;;;;6293780;22;20559;-76
2021/05/29 10:59:10;;;;;;;7.50;6.40;;;18.30;99.90;;;;;;6293889;22;20164;-77
2021/05/29 11:02:05;;;;;;;8.05;6.28;;;18.30;99.90;;;;;;6294583;22;20486;-74
2021/05/29 11:04:32;;;;;;;8.25;6.38;;;18.40;99.90;;;;;;6293878;22;20234;-75
2021/05/29 11:07:23;;;;;;;7.68;6.82;;;18.50;99.90;;;;;;6294836;22;20176;-77
2021/05/29 11:09:59;;;;;;;7.93;5.75;;;18.80;99.90;;;;;;6294316;22;20234;-76
2021/05/29 11:12:54;;;;;;;9.15;6.63;;;19.00;99.90;;;;;;6294996;22;20174;-76
2021/05/29 11:15:55;;;;;;;7.95;5.78;;;19.10;99.90;;;;;;6294385;22;20206;-78
2021/05/29 11:18:21;;;;;;;6.50;5.72;;;19.20;99.90;;;;;;6293636;22;20171;-76
2021/05/29 11:21:08;;;;;;;7.88;6.72;;;19.30;99.90;;;;;;6294896;22;20176;-77
2021/05/29 11:23:36;;;;;;;7.38;5.80;;;19.10;99.90;;;;;;6294680;22;20572;-77
2021/05/29 11:26:03;;;;;;;6.82;5.95;;;19.30;99.90;;;;;;6294636;22;20179;-80
2021/05/29 11:28:30;;;;;;;7.15;6.47;;;19.80;99.90;;;;;;6294259;22;20569;-79
2021/05/29 11:30:59;;;;;;;8.63;5.75;;;19.80;99.90;;;;;;6293928;22;20183;-77
2021/05/29 11:33:25;;;;;;;7.50;5.90;;;19.60;99.90;;;;;;6295075;22;20195;-80
2021/05/29 11:35:53;;;;;;;10.48;6.78;;;19.30;99.90;;;;;;6294988;22;20171;-76
2021/05/29 11:38:22;;;;;;;6.18;5.55;;;19.10;99.90;;;;;;6294180;22;20172;-76
2021/05/29 11:40:57;;;;;;;6.35;5.60;;;19.00;99.90;;;;;;6295132;22;20675;-78
2021/05/29 11:43:39;;;;;;;8.98;6.15;;;19.00;99.90;;;;;;6292653;22;20199;-76
2021/05/29 11:46:07;;;;;;;8.25;6.32;;;19.10;99.90;;;;;;6293646;22;20271;-74
2021/05/29 11:48:36;;;;;;;7.32;6.15;;;19.00;99.90;;;;;;6293838;22;20172;-74
2021/05/29 11:51:10;;;;;;;8.82;6.65;;;19.00;99.90;;;;;;6293418;22;20180;-76
2021/05/29 11:53:39;;;;;;;6.72;6.03;;;19.10;99.90;;;;;;6294104;22;20624;-74
2021/05/29 11:56:06;;;;;;;8.88;6.47;;;19.30;99.90;;;;;;6293777;22;20180;-77
2021/05/29 11:58:58;;;;;;;7.35;6.60;;;19.50;99.90;;;;;;6293806;22;20654;-75
2021/05/29 12:01:27;;;;;;;7.32;6.10;;;19.30;99.90;;;;;;6271692;22;20991;-76
2021/05/29 12:03:56;;;;;;;9.05;6.68;;;19.10;99.90;;;;;;6294444;22;20172;-75
2021/05/29 12:06:37;;;;;;;7.57;6.80;;;19.10;99.90;;;;;;6293408;22;20247;-76
2021/05/29 12:09:05;;;;;;;7.53;6.53;;;19.20;99.90;;;;;;6293616;22;20219;-79
2021/05/29 12:11:33;;;;;;;8.98;6.93;;;19.30;99.90;;;;;;6294103;22;20175;-80
2021/05/29 12:14:05;;;;;;;7.55;6.47;;;19.20;99.90;;;;;;6293377;22;20176;-79
2021/05/29 12:16:33;;;;;;;7.80;7.03;;;19.00;99.90;;;;;;6294715;22;20164;-76
2021/05/29 12:18:59;;;;;;;7.45;6.40;;;19.10;99.90;;;;;;6293522;22;20168;-78
2021/05/29 12:21:43;;;;;;;8.45;6.18;;;19.10;99.90;;;;;;6293549;22;20178;-77
2021/05/29 12:24:10;;;;;;;9.40;6.38;;;19.30;99.90;;;;;;6294190;22;20168;-77
2021/05/29 12:26:36;;;;;;;10.50;6.57;;;19.40;99.90;;;;;;6294354;22;20176;-77
2021/05/29 12:29:04;;;;;;;9.75;6.53;;;19.30;99.90;;;;;;6293553;22;20200;-78
2021/05/29 12:31:47;;;;;;;6.90;5.80;;;19.10;99.90;;;;;;6294587;22;20237;-77
2021/05/29 12:34:13;;;;;;;9.40;5.50;;;18.70;99.90;;;;;;6293668;22;20728;-77
2021/05/29 12:37:10;;;;;;;11.43;5.65;;;18.60;99.90;;;;;;6294420;22;20178;-79
2021/05/29 12:39:54;;;;;;;7.07;5.22;;;18.40;99.90;;;;;;6294761;22;20776;-76
2021/05/29 12:42:30;;;;;;;6.45;5.07;;;18.60;99.90;;;;;;6295034;22;20187;-77
2021/05/29 12:44:59;;;;;;;7.97;5.45;;;18.70;99.90;;;;;;6295075;22;20168;-78
2021/05/29 12:47:26;;;;;;;11.95;6.05;;;18.50;99.90;;;;;;6294513;22;20246;-77
2021/05/29 12:49:53;;;;;;;6.28;5.43;;;18.40;99.90;;;;;;6293780;22;20796;-76
2021/05/29 12:52:24;;;;;;;8.55;5.80;;;18.60;99.90;;;;;;6295229;22;20191;-79
2021/05/29 12:54:51;;;;;;;6.47;5.20;;;18.80;99.90;;;;;;6294530;22;20172;-78